createdAt,value
2023-03-11T00:01:30.014Z,97659.00
2023-03-11T00:04:01.129Z,97648.00
2023-03-11T00:06:31.973Z,97656.00
2023-03-11T00:09:05.066Z,97656.00
2023-03-11T00:11:36.025Z,97665.00
2023-03-11T00:14:07.050Z,97672.00
2023-03-11T00:16:38.060Z,97677.00
2023-03-11T00:19:11.044Z,97680.00
2023-03-11T00:21:42.049Z,97683.00
2023-03-11T00:24:13.020Z,97700.00
2023-03-11T00:26:43.891Z,97694.00
2023-03-11T00:29:15.490Z,97698.00
2023-03-11T00:31:46.476Z,97694.00
2023-03-11T00:34:17.526Z,97686.00
2023-03-11T00:36:48.521Z,97674.00
2023-03-11T00:39:19.429Z,97705.00
2023-03-11T00:41:51.765Z,97697.00
2023-03-11T00:44:24.681Z,97687.00
2023-03-11T00:46:55.626Z,97701.00
2023-03-11T00:49:26.576Z,97694.00
2023-03-11T00:51:57.456Z,97707.00
2023-03-11T00:54:28.603Z,97705.00
2023-03-11T00:56:59.532Z,97715.00
2023-03-11T00:59:30.398Z,97715.00
2023-03-11T01:02:01.241Z,97719.00
2023-03-11T01:04:32.162Z,97729.00
2023-03-11T01:07:03.496Z,97713.00
2023-03-11T01:09:34.465Z,97728.00
2023-03-11T01:12:05.745Z,97719.00
2023-03-11T01:14:36.652Z,97724.00
2023-03-11T01:17:07.610Z,97718.00
2023-03-11T01:19:38.503Z,97729.00
2023-03-11T01:22:10.151Z,97741.00
2023-03-11T01:24:41.047Z,97716.00
2023-03-11T01:27:11.930Z,97722.00
2023-03-11T01:29:42.851Z,97728.00
2023-03-11T01:32:13.755Z,97730.00
2023-03-11T01:34:44.651Z,97723.00
2023-03-11T01:37:15.480Z,97723.00
2023-03-11T01:39:46.644Z,97729.00
2023-03-11T01:42:17.729Z,97740.00
2023-03-11T01:44:48.610Z,97740.00
2023-03-11T01:47:38.751Z,97728.00
2023-03-11T01:50:13.525Z,97740.00
2023-03-11T01:52:44.821Z,97733.00
2023-03-11T01:55:18.861Z,97714.00
2023-03-11T01:57:51.895Z,97728.00
2023-03-11T02:00:23.111Z,97734.00
2023-03-11T02:02:57.961Z,97715.00
2023-03-11T02:05:29.326Z,97719.00
2023-03-11T02:08:00.765Z,97740.00
2023-03-11T02:10:31.862Z,97754.00
2023-03-11T02:13:04.223Z,97738.00
2023-03-11T02:15:35.383Z,97759.00
2023-03-11T02:18:07.401Z,97765.00
2023-03-11T02:21:08.523Z,97774.00
2023-03-11T02:24:00.320Z,97769.00
2023-03-11T02:26:58.510Z,97775.00
2023-03-11T02:29:30.506Z,97784.00
2023-03-11T02:32:10.431Z,97778.00
2023-03-11T02:34:41.387Z,97757.00
2023-03-11T02:37:15.861Z,97781.00
2023-03-11T02:39:53.699Z,97785.00
2023-03-11T02:42:32.405Z,97773.00
2023-03-11T02:45:14.313Z,97785.00
2023-03-11T02:47:45.209Z,97762.00
2023-03-11T02:50:18.321Z,97766.00
2023-03-11T02:52:50.201Z,97785.00
2023-03-11T02:55:21.537Z,97762.00
2023-03-11T02:57:52.402Z,97786.00
2023-03-11T03:00:23.359Z,97772.00
2023-03-11T03:02:54.876Z,97761.00
2023-03-11T03:05:25.806Z,97766.00
2023-03-11T03:07:56.682Z,97774.00
2023-03-11T03:10:27.604Z,97787.00
2023-03-11T03:12:58.505Z,97785.00
2023-03-11T03:15:29.420Z,97787.00
2023-03-11T03:18:00.294Z,97794.00
2023-03-11T03:20:31.450Z,97790.00
2023-03-11T03:23:02.564Z,97809.00
2023-03-11T03:25:33.482Z,97809.00
2023-03-11T03:28:04.695Z,97802.00
2023-03-11T03:30:35.652Z,97800.00
2023-03-11T03:33:07.532Z,97795.00
2023-03-11T03:35:43.350Z,97798.00
2023-03-11T03:38:14.294Z,97786.00
2023-03-11T03:40:48.710Z,97809.00
2023-03-11T03:43:19.582Z,97809.00
2023-03-11T03:46:05.179Z,97809.00
2023-03-11T03:48:36.875Z,97822.00
2023-03-11T03:51:12.126Z,97822.00
2023-03-11T03:53:43.972Z,97838.00
2023-03-11T03:56:17.384Z,97835.00
2023-03-11T03:58:48.329Z,97828.00
2023-03-11T04:01:19.234Z,97832.00
2023-03-11T04:03:50.296Z,97832.00
2023-03-11T04:06:25.271Z,97836.00
2023-03-11T04:08:56.353Z,97839.00
2023-03-11T04:11:27.219Z,97835.00
2023-03-11T04:13:58.085Z,97846.00
2023-03-11T04:16:29.008Z,97843.00
2023-03-11T04:18:59.911Z,97847.00
2023-03-11T04:21:31.991Z,97845.00
2023-03-11T04:24:03.356Z,97853.00
2023-03-11T04:26:34.825Z,97851.00
2023-03-11T04:29:05.768Z,97843.00
2023-03-11T04:31:36.755Z,97849.00
2023-03-11T04:34:07.667Z,97857.00
2023-03-11T04:36:38.811Z,97860.00
2023-03-11T04:39:09.692Z,97856.00
2023-03-11T04:41:40.616Z,97853.00
2023-03-11T04:44:11.553Z,97849.00
2023-03-11T04:46:42.441Z,97844.00
2023-03-11T04:49:13.323Z,97844.00
2023-03-11T04:51:44.450Z,97850.00
2023-03-11T04:54:15.333Z,97843.00
2023-03-11T04:56:46.301Z,97846.00
2023-03-11T04:59:17.201Z,97862.00
2023-03-11T05:01:48.146Z,97859.00
2023-03-11T05:04:19.086Z,97861.00
2023-03-11T05:06:51.281Z,97860.00
2023-03-11T05:09:22.331Z,97868.00
2023-03-11T05:11:53.229Z,97863.00
2023-03-11T05:14:24.127Z,97869.00
2023-03-11T05:16:55.040Z,97871.00
2023-03-11T05:19:32.046Z,97867.00
2023-03-11T05:22:04.487Z,97875.00
2023-03-11T05:24:35.384Z,97865.00
2023-03-11T05:27:06.322Z,97882.00
2023-03-11T05:29:37.235Z,97875.00
2023-03-11T05:32:08.275Z,97870.00
2023-03-11T05:34:39.258Z,97873.00
2023-03-11T05:37:10.149Z,97885.00
2023-03-11T05:39:48.484Z,97882.00
2023-03-11T05:42:21.354Z,97883.00
2023-03-11T05:44:52.476Z,97881.00
2023-03-11T05:47:23.390Z,97886.00
2023-03-11T05:49:54.316Z,97885.00
2023-03-11T05:52:25.261Z,97882.00
2023-03-11T05:54:56.301Z,97887.00
2023-03-11T05:57:27.228Z,97884.00
2023-03-11T05:59:58.174Z,97892.00
2023-03-11T06:02:29.023Z,97892.00
2023-03-11T06:05:00.046Z,97890.00
2023-03-11T06:07:30.991Z,97892.00
2023-03-11T06:10:03.779Z,97901.00
2023-03-11T06:12:35.469Z,97903.00
2023-03-11T06:15:08.071Z,97912.00
2023-03-11T06:17:38.925Z,97918.00
2023-03-11T06:20:10.940Z,97908.00
2023-03-11T06:22:41.823Z,97906.00
2023-03-11T06:25:12.979Z,97917.00
2023-03-11T06:27:44.708Z,97915.00
2023-03-11T06:30:16.025Z,97914.00
2023-03-11T06:32:47.712Z,97924.00
2023-03-11T06:35:18.786Z,97912.00
2023-03-11T06:37:49.660Z,97924.00
2023-03-11T06:40:20.723Z,97923.00
2023-03-11T06:42:52.431Z,97935.00
2023-03-11T06:45:23.523Z,97939.00
2023-03-11T06:47:54.408Z,97943.00
2023-03-11T06:50:26.092Z,97951.00
2023-03-11T06:52:57.500Z,97958.00
2023-03-11T06:55:28.637Z,97972.00
2023-03-11T06:57:59.575Z,97965.00
2023-03-11T07:00:31.285Z,97965.00
2023-03-11T07:03:02.265Z,97950.00
2023-03-11T07:05:33.167Z,97968.00
2023-03-11T07:08:04.238Z,97979.00
2023-03-11T07:10:35.704Z,97986.00
2023-03-11T07:13:06.669Z,97984.00
2023-03-11T07:15:37.542Z,97982.00
2023-03-11T07:18:08.477Z,97977.00
2023-03-11T07:20:39.368Z,97980.00
2023-03-11T07:23:10.223Z,97992.00
2023-03-11T07:25:47.478Z,97999.00
2023-03-11T07:28:18.975Z,97993.00
2023-03-11T07:30:50.555Z,97986.00
2023-03-11T07:33:24.156Z,97986.00
2023-03-11T07:35:55.090Z,97989.00
2023-03-11T07:38:26.117Z,97991.00
2023-03-11T07:41:00.525Z,97992.00
2023-03-11T07:43:32.578Z,97994.00
2023-03-11T07:46:07.019Z,98009.00
2023-03-11T07:48:39.685Z,98005.00
2023-03-11T07:51:11.781Z,97993.00
2023-03-11T07:53:43.569Z,97999.00
2023-03-11T07:56:16.951Z,98017.00
2023-03-11T07:58:47.931Z,98009.00
2023-03-11T08:01:22.835Z,98012.00
2023-03-11T08:03:58.790Z,98013.00
2023-03-11T08:06:33.135Z,98025.00
2023-03-11T08:09:09.403Z,98028.00
2023-03-11T08:11:40.722Z,98012.00
2023-03-11T08:14:11.694Z,98012.00
2023-03-11T08:16:42.695Z,98007.00
2023-03-11T08:19:14.267Z,98022.00
2023-03-11T08:21:45.261Z,98026.00
2023-03-11T08:24:16.501Z,98028.00
2023-03-11T08:26:47.384Z,98035.00
2023-03-11T08:29:18.265Z,98033.00
2023-03-11T08:31:49.139Z,98034.00
2023-03-11T08:34:21.525Z,98037.00
2023-03-11T08:36:52.601Z,98035.00
2023-03-11T08:39:24.014Z,98041.00
2023-03-11T08:41:54.940Z,98052.00
2023-03-11T08:44:25.846Z,98054.00
2023-03-11T08:46:56.775Z,98055.00
2023-03-11T08:49:27.757Z,98076.00
2023-03-11T08:51:58.680Z,98056.00
2023-03-11T08:54:31.837Z,98053.00
2023-03-11T08:57:04.678Z,98063.00
2023-03-11T08:59:36.290Z,98060.00
2023-03-11T09:02:07.533Z,98058.00
2023-03-11T09:04:38.480Z,98062.00
2023-03-11T09:07:11.946Z,98059.00
2023-03-11T09:09:43.268Z,98065.00
2023-03-11T09:12:14.248Z,98067.00
2023-03-11T09:14:45.747Z,98065.00
2023-03-11T09:17:17.299Z,98062.00
2023-03-11T09:19:49.131Z,98065.00
2023-03-11T09:22:20.086Z,98071.00
2023-03-11T09:24:51.078Z,98076.00
2023-03-11T09:27:21.998Z,98072.00
2023-03-11T09:29:52.954Z,98074.00
2023-03-11T09:32:24.163Z,98074.00
2023-03-11T09:34:55.119Z,98082.00
2023-03-11T09:37:27.901Z,98082.00
2023-03-11T09:39:58.811Z,98086.00
2023-03-11T09:42:35.419Z,98074.00
2023-03-11T09:45:24.081Z,98076.00
2023-03-11T09:48:53.840Z,98073.00
2023-03-11T09:51:40.794Z,98077.00
2023-03-11T09:54:13.885Z,98075.00
2023-03-11T09:56:45.201Z,98076.00
2023-03-11T09:59:32.190Z,98077.00
2023-03-11T10:02:05.138Z,98079.00
2023-03-11T10:04:42.791Z,98078.00
2023-03-11T10:07:21.767Z,98082.00
2023-03-11T10:09:56.949Z,98075.00
2023-03-11T10:13:14.385Z,98067.00
2023-03-11T10:15:54.489Z,98066.00
2023-03-11T10:18:38.540Z,98071.00
2023-03-11T10:21:58.213Z,98070.00
2023-03-11T10:25:12.016Z,98073.00
2023-03-11T10:28:08.957Z,98068.00
2023-03-11T10:30:56.095Z,98070.00
2023-03-11T10:33:40.147Z,98069.00
2023-03-11T10:36:24.293Z,98063.00
2023-03-11T10:38:56.228Z,98066.00
2023-03-11T10:41:55.328Z,98069.00
2023-03-11T10:44:37.548Z,98063.00
2023-03-11T10:47:21.394Z,98058.00
2023-03-11T10:49:52.882Z,98058.00
2023-03-11T10:52:23.762Z,98042.00
2023-03-11T10:55:03.480Z,98051.00
2023-03-11T10:57:38.179Z,98057.00
2023-03-11T11:00:17.292Z,98063.00
2023-03-11T11:03:04.470Z,98063.00
2023-03-11T11:05:35.468Z,98062.00
2023-03-11T11:08:16.981Z,98060.00
2023-03-11T11:11:00.527Z,98055.00
2023-03-11T11:13:37.220Z,98057.00
2023-03-11T11:16:20.948Z,98066.00
2023-03-11T11:19:18.865Z,98066.00
2023-03-11T11:21:52.238Z,98061.00
2023-03-11T11:24:31.346Z,98060.00
2023-03-11T11:27:21.968Z,98061.00
2023-03-11T11:30:08.921Z,98051.00
2023-03-11T11:32:39.936Z,98054.00
2023-03-11T11:35:15.142Z,98060.00
2023-03-11T11:38:02.578Z,98061.00
2023-03-11T11:40:34.855Z,98059.00
2023-03-11T11:43:17.226Z,98054.00
2023-03-11T11:45:59.614Z,98071.00
2023-03-11T11:48:51.996Z,98065.00
2023-03-11T11:51:35.514Z,98062.00
2023-03-11T11:54:27.420Z,98060.00
2023-03-11T11:57:00.513Z,98056.00
2023-03-11T11:59:31.619Z,98055.00
2023-03-11T12:02:44.537Z,98048.00
2023-03-11T12:05:22.446Z,98049.00
2023-03-11T12:08:21.709Z,98041.00
2023-03-11T12:11:06.635Z,98024.00
2023-03-11T12:14:04.853Z,98029.00
2023-03-11T12:16:43.132Z,98015.00
2023-03-11T12:19:29.000Z,98012.00
2023-03-11T12:22:36.601Z,98000.00
2023-03-11T12:25:25.708Z,98004.00
2023-03-11T12:28:12.765Z,98007.00
2023-03-11T12:30:50.729Z,98006.00
2023-03-11T12:33:38.652Z,98015.00
2023-03-11T12:36:25.174Z,97994.00
2023-03-11T12:38:56.756Z,97995.00
2023-03-11T12:41:40.016Z,97996.00
2023-03-11T12:44:29.687Z,97996.00
2023-03-11T12:47:22.541Z,97993.00
2023-03-11T12:49:56.304Z,97996.00
2023-03-11T12:52:29.228Z,98029.00
2023-03-11T12:55:00.252Z,98007.00
2023-03-11T12:57:48.912Z,98000.00
2023-03-11T13:01:07.749Z,98004.00
2023-03-11T13:04:43.744Z,98003.00
2023-03-11T13:08:01.001Z,98000.00
2023-03-11T13:10:41.672Z,97999.00
2023-03-11T13:13:33.738Z,98000.00
2023-03-11T13:16:14.123Z,98004.00
2023-03-11T13:18:47.799Z,97993.00
2023-03-11T13:21:27.545Z,97998.00
2023-03-11T13:24:22.026Z,97995.00
2023-03-11T13:27:04.392Z,97995.00
2023-03-11T13:30:16.745Z,97999.00
2023-03-11T13:33:26.301Z,98001.00
2023-03-11T13:36:10.563Z,98001.00
2023-03-11T13:39:13.950Z,98002.00
2023-03-11T13:41:45.740Z,98000.00
2023-03-11T13:44:19.565Z,98004.00
2023-03-11T13:47:09.918Z,97993.00
2023-03-11T13:50:12.893Z,97992.00
2023-03-11T13:52:55.694Z,98006.00
2023-03-11T13:55:40.412Z,98010.00
2023-03-11T13:58:22.665Z,98004.00
2023-03-11T14:00:59.806Z,97999.00
2023-03-11T14:03:41.191Z,98011.00
2023-03-11T14:06:19.943Z,98001.00
2023-03-11T14:08:57.022Z,97991.00
2023-03-11T14:11:29.587Z,97995.00
2023-03-11T14:14:01.835Z,98002.00
2023-03-11T14:16:44.210Z,98006.00
2023-03-11T14:19:17.530Z,98011.00
2023-03-11T14:21:54.823Z,97997.00
2023-03-11T14:24:29.339Z,98000.00
2023-03-11T14:27:05.067Z,98015.00
2023-03-11T14:29:39.655Z,98022.00
2023-03-11T14:32:32.858Z,97996.00
2023-03-11T14:35:20.598Z,97998.00
2023-03-11T14:37:52.229Z,97998.00
2023-03-11T14:40:30.658Z,98003.00
2023-03-11T14:43:07.500Z,97995.00
2023-03-11T14:45:40.473Z,98003.00
2023-03-11T14:48:16.681Z,98003.00
2023-03-11T14:50:49.753Z,97997.00
2023-03-11T14:54:17.633Z,97995.00
2023-03-11T14:56:57.097Z,98003.00
2023-03-11T14:59:34.641Z,97998.00
2023-03-11T15:02:55.655Z,98011.00
2023-03-11T15:05:51.005Z,98013.00
2023-03-11T15:08:27.316Z,98013.00
2023-03-11T15:11:08.686Z,98007.00
2023-03-11T15:13:43.209Z,98010.00
2023-03-11T15:16:35.950Z,98025.00
2023-03-11T15:19:29.839Z,98027.00
2023-03-11T15:22:38.803Z,98025.00
2023-03-11T15:25:20.093Z,98026.00
2023-03-11T15:27:51.230Z,98032.00
2023-03-11T15:30:30.217Z,98037.00
2023-03-11T15:33:01.159Z,98038.00
2023-03-11T15:35:46.099Z,98035.00
2023-03-11T15:38:25.585Z,98040.00
2023-03-11T15:41:01.176Z,98037.00
2023-03-11T15:43:46.056Z,98041.00
2023-03-11T15:46:17.003Z,98042.00
2023-03-11T15:48:47.855Z,98057.00
2023-03-11T15:51:20.589Z,98059.00
2023-03-11T15:53:51.450Z,98065.00
2023-03-11T15:56:25.051Z,98058.00
2023-03-11T15:58:56.210Z,98061.00
2023-03-11T16:01:29.066Z,98065.00
2023-03-11T16:04:00.107Z,98074.00
2023-03-11T16:06:31.034Z,98078.00
2023-03-11T16:09:01.885Z,98085.00
2023-03-11T16:11:33.191Z,98090.00
2023-03-11T16:14:04.395Z,98089.00
2023-03-11T16:16:35.260Z,98085.00
2023-03-11T16:19:06.093Z,98074.00
2023-03-11T16:21:43.109Z,98074.00
2023-03-11T16:24:24.206Z,98073.00
2023-03-11T16:26:55.584Z,98071.00
2023-03-11T16:29:27.090Z,98069.00
2023-03-11T16:31:58.044Z,98078.00
2023-03-11T16:34:28.901Z,98079.00
2023-03-11T16:36:59.798Z,98078.00
2023-03-11T16:39:30.683Z,98080.00
2023-03-11T16:42:01.721Z,98084.00
2023-03-11T16:44:32.620Z,98094.00
2023-03-11T16:47:03.581Z,98091.00
2023-03-11T16:49:34.436Z,98107.00
2023-03-11T16:52:05.692Z,98097.00
2023-03-11T16:54:36.606Z,98117.00
2023-03-11T16:57:07.466Z,98134.00
2023-03-11T16:59:39.174Z,98118.00
2023-03-11T17:02:12.030Z,98121.00
2023-03-11T17:04:42.963Z,98123.00
2023-03-11T17:07:14.026Z,98122.00
2023-03-11T17:09:44.983Z,98124.00
2023-03-11T17:12:18.374Z,98124.00
2023-03-11T17:14:49.312Z,98126.00
2023-03-11T17:17:21.886Z,98131.00
2023-03-11T17:19:52.799Z,98139.00
2023-03-11T17:22:23.771Z,98146.00
2023-03-11T17:24:54.760Z,98148.00
2023-03-11T17:27:26.215Z,98146.00
2023-03-11T17:29:57.085Z,98163.00
2023-03-11T17:32:29.365Z,98163.00
2023-03-11T17:35:00.489Z,98163.00
2023-03-11T17:37:31.894Z,98168.00
2023-03-11T17:40:03.021Z,98178.00
2023-03-11T17:42:33.948Z,98191.00
2023-03-11T17:45:05.385Z,98193.00
2023-03-11T17:47:36.941Z,98184.00
2023-03-11T17:50:08.660Z,98190.00
2023-03-11T17:52:39.721Z,98201.00
2023-03-11T17:55:11.027Z,98204.00
2023-03-11T17:57:45.520Z,98202.00
2023-03-11T18:00:17.379Z,98203.00
2023-03-11T18:02:48.393Z,98216.00
2023-03-11T18:05:20.162Z,98202.00
2023-03-11T18:07:51.077Z,98231.00
2023-03-11T18:10:22.046Z,98208.00
2023-03-11T18:12:52.974Z,98216.00
2023-03-11T18:15:24.481Z,98241.00
2023-03-11T18:17:56.972Z,98217.00
2023-03-11T18:20:27.893Z,98227.00
2023-03-11T18:22:58.755Z,98231.00
2023-03-11T18:25:29.662Z,98225.00
2023-03-11T18:28:00.600Z,98232.00
2023-03-11T18:30:31.505Z,98241.00
2023-03-11T18:33:02.386Z,98245.00
2023-03-11T18:35:33.245Z,98247.00
2023-03-11T18:38:04.153Z,98249.00
2023-03-11T18:40:35.074Z,98257.00
2023-03-11T18:43:06.035Z,98286.00
2023-03-11T18:45:39.873Z,98259.00
2023-03-11T18:48:10.741Z,98253.00
2023-03-11T18:50:41.614Z,98254.00
2023-03-11T18:53:12.442Z,98251.00
2023-03-11T18:55:43.322Z,98255.00
2023-03-11T18:58:14.800Z,98255.00
2023-03-11T19:00:46.161Z,98258.00
2023-03-11T19:03:17.296Z,98259.00
2023-03-11T19:05:50.880Z,98258.00
2023-03-11T19:08:21.924Z,98257.00
2023-03-11T19:10:53.930Z,98265.00
2023-03-11T19:13:29.744Z,98264.00
2023-03-11T19:16:11.523Z,98269.00
2023-03-11T19:18:42.367Z,98264.00
2023-03-11T19:21:15.316Z,98267.00
2023-03-11T19:23:46.673Z,98281.00
2023-03-11T19:26:17.710Z,98286.00
2023-03-11T19:28:49.024Z,98275.00
2023-03-11T19:31:20.070Z,98290.00
2023-03-11T19:33:51.252Z,98289.00
2023-03-11T19:36:22.129Z,98282.00
2023-03-11T19:38:53.367Z,98293.00
2023-03-11T19:41:24.381Z,98293.00
2023-03-11T19:43:55.708Z,98293.00
2023-03-11T19:46:28.307Z,98293.00
2023-03-11T19:48:59.668Z,98295.00
2023-03-11T19:51:42.480Z,98321.00
2023-03-11T19:54:18.823Z,98298.00
2023-03-11T19:56:50.386Z,98297.00
2023-03-11T19:59:21.725Z,98299.00
2023-03-11T20:01:52.699Z,98311.00
2023-03-11T20:04:23.730Z,98314.00
2023-03-11T20:06:55.002Z,98315.00
2023-03-11T20:09:25.917Z,98310.00
2023-03-11T20:11:56.870Z,98314.00
2023-03-11T20:14:27.847Z,98322.00
2023-03-11T20:16:58.813Z,98327.00
2023-03-11T20:19:29.694Z,98328.00
2023-03-11T20:22:00.746Z,98334.00
2023-03-11T20:24:31.710Z,98329.00
2023-03-11T20:27:02.605Z,98331.00
2023-03-11T20:29:33.497Z,98342.00
2023-03-11T20:32:04.710Z,98357.00
2023-03-11T20:34:35.708Z,98343.00
2023-03-11T20:37:06.626Z,98335.00
2023-03-11T20:39:39.325Z,98342.00
2023-03-11T20:42:10.277Z,98348.00
2023-03-11T20:44:41.246Z,98346.00
2023-03-11T20:47:12.209Z,98344.00
2023-03-11T20:49:43.977Z,98364.00
2023-03-11T20:52:15.043Z,98365.00
2023-03-11T20:54:45.955Z,98365.00
2023-03-11T20:57:17.040Z,98365.00
2023-03-11T20:59:47.896Z,98371.00
2023-03-11T21:02:18.945Z,98369.00
2023-03-11T21:04:49.809Z,98362.00
2023-03-11T21:07:20.796Z,98370.00
2023-03-11T21:09:54.638Z,98368.00
2023-03-11T21:12:26.242Z,98376.00
2023-03-11T21:14:57.408Z,98376.00
2023-03-11T21:17:28.411Z,98382.00
2023-03-11T21:19:59.267Z,98376.00
2023-03-11T21:22:30.171Z,98379.00
2023-03-11T21:25:02.108Z,98380.00
2023-03-11T21:27:33.035Z,98388.00
2023-03-11T21:30:04.992Z,98388.00
2023-03-11T21:32:36.163Z,98383.00
2023-03-11T21:35:07.546Z,98387.00
2023-03-11T21:37:38.577Z,98392.00
2023-03-11T21:40:10.754Z,98380.00
2023-03-11T21:42:41.695Z,98385.00
2023-03-11T21:45:12.916Z,98390.00
2023-03-11T21:47:43.850Z,98388.00
2023-03-11T21:50:14.717Z,98384.00
2023-03-11T21:52:45.822Z,98391.00
2023-03-11T21:55:17.368Z,98400.00
2023-03-11T21:57:48.295Z,98392.00
2023-03-11T22:00:19.579Z,98391.00
2023-03-11T22:02:50.712Z,98389.00
2023-03-11T22:05:21.723Z,98390.00
2023-03-11T22:07:52.961Z,98395.00
2023-03-11T22:10:24.116Z,98389.00
2023-03-11T22:12:55.116Z,98386.00
2023-03-11T22:15:26.281Z,98389.00
2023-03-11T22:17:57.226Z,98394.00
2023-03-11T22:20:28.167Z,98388.00
2023-03-11T22:22:59.453Z,98398.00
2023-03-11T22:25:30.323Z,98390.00
2023-03-11T22:28:01.460Z,98389.00
2023-03-11T22:30:32.346Z,98396.00
2023-03-11T22:33:03.215Z,98385.00
2023-03-11T22:35:34.709Z,98392.00
2023-03-11T22:38:05.970Z,98403.00
2023-03-11T22:40:41.424Z,98392.00
2023-03-11T22:43:13.210Z,98392.00
2023-03-11T22:45:45.891Z,98387.00
2023-03-11T22:48:16.789Z,98399.00
2023-03-11T22:50:47.926Z,98394.00
2023-03-11T22:53:21.503Z,98393.00
2023-03-11T22:55:53.053Z,98388.00
2023-03-11T22:58:23.919Z,98393.00
2023-03-11T23:00:54.753Z,98400.00
2023-03-11T23:03:26.533Z,98401.00
2023-03-11T23:06:07.683Z,98397.00
2023-03-11T23:08:38.630Z,98404.00
2023-03-11T23:11:13.035Z,98399.00
2023-03-11T23:13:45.034Z,98384.00
2023-03-11T23:16:19.924Z,98406.00
2023-03-11T23:18:53.937Z,98410.00
2023-03-11T23:21:31.280Z,98415.00
2023-03-11T23:24:05.078Z,98407.00
2023-03-11T23:26:37.436Z,98414.00
2023-03-11T23:29:08.303Z,98411.00
2023-03-11T23:31:39.319Z,98409.00
2023-03-11T23:34:10.185Z,98414.00
2023-03-11T23:36:41.049Z,98418.00
2023-03-11T23:39:11.898Z,98416.00
2023-03-11T23:41:42.783Z,98413.00
2023-03-11T23:44:16.749Z,98405.00
2023-03-11T23:46:47.654Z,98421.00
2023-03-11T23:49:18.554Z,98420.00
2023-03-11T23:51:49.473Z,98430.00
2023-03-11T23:54:20.411Z,98424.00
2023-03-11T23:56:51.272Z,98418.00
2023-03-11T23:59:22.199Z,98422.00
